This is the latest recevied weather packets stored in our database for station/object WA4IKQ. If no packets are shown the sender has not sent any weather packets the latest 10 day(s).
| Time | Temp. | Humidity | Pressure | Rain* | Wind** | Luminosity | Snow |
|---|---|---|---|---|---|---|---|
| 1777950815 | 21.11° C | 73% | 1016.4 hPa | 0 mm | 0 m/s | - | - |
| 1777950618 | 21.11° C | 73% | 1016.4 hPa | 0 mm | 0 m/s | - | - |
| 1777950311 | 21.11° C | 73% | 1016.4 hPa | 0 mm | 0 m/s | - | - |
| 1777950142 | 21.11° C | 72% | 1016.3 hPa | 0 mm | 0.89 m/s, 63° | - | - |
| 1777950108 | 21.11° C | 72% | 1016.3 hPa | 0 mm | 0.89 m/s, 63° | - | - |
| 1777949712 | 21.11° C | 72% | 1016.3 hPa | 0 mm | 0.89 m/s, 63° | - | - |
| 1777948514 | 21.67° C | 71% | 1016.4 hPa | 0 mm | 0.89 m/s, 30° | - | - |
| 1777948256 | 21.67° C | 70% | 1016.5 hPa | 0 mm | 0.45 m/s, 75° | - | - |
| 1777947913 | 21.67° C | 70% | 1016.5 hPa | 0 mm | 0.45 m/s, 75° | - | - |
| 1777947309 | 21.67° C | 70% | 1016.3 hPa | 0 mm | 0.45 m/s, 38° | - | - |
| 1777946709 | 21.67° C | 69% | 1016.2 hPa | 0 mm | 1.34 m/s, 28° | - | - |
| 1777946350 | 22.22° C | 69% | 1016 hPa | 0 mm | 1.79 m/s, 13° | - | - |
| 1777946195 | 21.67° C | 68% | 1016 hPa | 0 mm | 0.89 m/s, 44° | - | - |
| 1777946115 | 22.22° C | 69% | 1016 hPa | 0 mm | 1.79 m/s, 13° | - | - |
| 1777945451 | 22.22° C | 68% | 1015.9 hPa | 0 mm | 1.34 m/s, 72° | - | - |
| 1777944574 | 22.22° C | 67% | 1015.8 hPa | 0 mm | 1.34 m/s, 83° | - | - |
| 1777944525 | 22.22° C | 67% | 1015.8 hPa | 0 mm | 1.34 m/s, 83° | - | - |
| 1777944360 | 22.22° C | 66% | 1015.8 hPa | 0 mm | 0 m/s | - | - |
| 1777944312 | 22.22° C | 67% | 1015.8 hPa | 0 mm | 1.34 m/s, 83° | - | - |
| 1777944008 | 22.22° C | 66% | 1015.7 hPa | 0 mm | 0.89 m/s, 72° | - | - |
| 1777943710 | 22.22° C | 66% | 1015.7 hPa | 0 mm | 0.89 m/s, 72° | - | - |
| 1777941521 | 22.78° C | 63% | 1015.4 hPa | 0 mm | 2.68 m/s, 24° | - | - |
| 1777939897 | 23.33° C | 61% | 1015.4 hPa | 0 mm | 1.34 m/s, 44° | - | - |
| 1777939507 | 23.33° C | 61% | 1015.4 hPa | 0 mm | 1.34 m/s, 44° | - | - |
| 1777938821 | 23.89° C | 59% | 1015.1 hPa | 0 mm | 0.89 m/s, 21° | - | - |
* Rain latest hour (hover to see other rain measurements)
** Current wind speed in m/s (hover to see current wind gust speed)